sensor_id;sensor_type;location;lat;lon;timestamp;temperature;humidity
5280;DHT22;2663;53.588;10.010;2023-05-16T00:01:56;13.80;99.90
5280;DHT22;2663;53.588;10.010;2023-05-16T00:04:23;11.50;99.90
5280;DHT22;2663;53.588;10.010;2023-05-16T00:06:51;11.50;99.90
5280;DHT22;2663;53.588;10.010;2023-05-16T00:09:18;11.50;99.90
5280;DHT22;2663;53.588;10.010;2023-05-16T00:11:45;11.60;99.90
5280;DHT22;2663;53.588;10.010;2023-05-16T00:14:13;11.60;99.90
5280;DHT22;2663;53.588;10.010;2023-05-16T00:16:40;11.50;99.90
5280;DHT22;2663;53.588;10.010;2023-05-16T00:19:07;11.60;99.90
5280;DHT22;2663;53.588;10.010;2023-05-16T00:21:35;11.60;99.90
5280;DHT22;2663;53.588;10.010;2023-05-16T00:24:03;11.70;99.90
5280;DHT22;2663;53.588;10.010;2023-05-16T00:26:30;11.70;99.90
5280;DHT22;2663;53.588;10.010;2023-05-16T00:28:57;11.70;99.90
5280;DHT22;2663;53.588;10.010;2023-05-16T00:31:23;11.70;99.90
5280;DHT22;2663;53.588;10.010;2023-05-16T00:33:50;11.80;99.90
5280;DHT22;2663;53.588;10.010;2023-05-16T00:36:17;11.70;99.90
5280;DHT22;2663;53.588;10.010;2023-05-16T00:38:43;11.70;99.90
5280;DHT22;2663;53.588;10.010;2023-05-16T00:41:10;11.70;99.90
5280;DHT22;2663;53.588;10.010;2023-05-16T00:43:37;11.80;99.90
5280;DHT22;2663;53.588;10.010;2023-05-16T00:46:05;11.90;99.90
5280;DHT22;2663;53.588;10.010;2023-05-16T00:48:32;11.90;99.90
5280;DHT22;2663;53.588;10.010;2023-05-16T00:51:00;11.90;99.90
5280;DHT22;2663;53.588;10.010;2023-05-16T00:53:27;11.90;99.90
5280;DHT22;2663;53.588;10.010;2023-05-16T00:55:55;11.90;99.90
5280;DHT22;2663;53.588;10.010;2023-05-16T00:58:23;11.80;99.90
5280;DHT22;2663;53.588;10.010;2023-05-16T01:00:50;12.00;99.90
5280;DHT22;2663;53.588;10.010;2023-05-16T01:03:17;12.00;99.90
5280;DHT22;2663;53.588;10.010;2023-05-16T01:05:44;12.00;99.90
5280;DHT22;2663;53.588;10.010;2023-05-16T01:08:12;12.00;99.90
5280;DHT22;2663;53.588;10.010;2023-05-16T01:11:10;12.00;99.90
5280;DHT22;2663;53.588;10.010;2023-05-16T01:14:07;12.20;99.90
5280;DHT22;2663;53.588;10.010;2023-05-16T01:27:54;12.10;99.90
5280;DHT22;2663;53.588;10.010;2023-05-16T01:30:22;12.00;99.90
5280;DHT22;2663;53.588;10.010;2023-05-16T01:32:49;12.00;99.90
5280;DHT22;2663;53.588;10.010;2023-05-16T01:35:17;12.10;99.90
5280;DHT22;2663;53.588;10.010;2023-05-16T01:40:52;12.20;99.90
5280;DHT22;2663;53.588;10.010;2023-05-16T01:43:32;12.30;99.90
5280;DHT22;2663;53.588;10.010;2023-05-16T01:46:03;12.20;99.90
5280;DHT22;2663;53.588;10.010;2023-05-16T01:48:42;12.10;99.90
5280;DHT22;2663;53.588;10.010;2023-05-16T01:51:11;12.10;99.90
5280;DHT22;2663;53.588;10.010;2023-05-16T01:53:38;12.00;99.90
5280;DHT22;2663;53.588;10.010;2023-05-16T01:56:10;12.00;99.90
5280;DHT22;2663;53.588;10.010;2023-05-16T01:58:39;12.00;99.90
5280;DHT22;2663;53.588;10.010;2023-05-16T02:01:07;11.10;99.90
5280;DHT22;2663;53.588;10.010;2023-05-16T02:03:34;11.90;99.90
5280;DHT22;2663;53.588;10.010;2023-05-16T02:06:01;11.70;99.90
5280;DHT22;2663;53.588;10.010;2023-05-16T02:08:28;11.70;99.90
5280;DHT22;2663;53.588;10.010;2023-05-16T02:10:54;11.70;99.90
5280;DHT22;2663;53.588;10.010;2023-05-16T02:13:21;11.70;99.90
5280;DHT22;2663;53.588;10.010;2023-05-16T02:15:48;12.50;99.90
5280;DHT22;2663;53.588;10.010;2023-05-16T02:18:15;11.80;99.90
5280;DHT22;2663;53.588;10.010;2023-05-16T02:20:42;10.70;99.90
5280;DHT22;2663;53.588;10.010;2023-05-16T02:23:08;11.70;99.90
5280;DHT22;2663;53.588;10.010;2023-05-16T02:25:35;11.60;99.90
5280;DHT22;2663;53.588;10.010;2023-05-16T02:28:03;11.60;99.90
5280;DHT22;2663;53.588;10.010;2023-05-16T02:30:29;11.50;99.90
5280;DHT22;2663;53.588;10.010;2023-05-16T02:32:56;12.90;99.90
5280;DHT22;2663;53.588;10.010;2023-05-16T02:35:23;11.60;99.90
5280;DHT22;2663;53.588;10.010;2023-05-16T02:37:50;11.70;99.90
5280;DHT22;2663;53.588;10.010;2023-05-16T02:40:16;11.70;99.90
5280;DHT22;2663;53.588;10.010;2023-05-16T02:42:43;11.60;99.90
5280;DHT22;2663;53.588;10.010;2023-05-16T02:45:10;11.60;99.90
5280;DHT22;2663;53.588;10.010;2023-05-16T02:47:37;11.50;99.90
5280;DHT22;2663;53.588;10.010;2023-05-16T02:50:03;11.50;99.90
5280;DHT22;2663;53.588;10.010;2023-05-16T02:52:30;11.50;99.90
5280;DHT22;2663;53.588;10.010;2023-05-16T02:54:57;11.50;99.90
5280;DHT22;2663;53.588;10.010;2023-05-16T02:57:43;11.50;99.90
5280;DHT22;2663;53.588;10.010;2023-05-16T03:00:11;11.40;99.90
5280;DHT22;2663;53.588;10.010;2023-05-16T03:02:38;11.40;99.90
5280;DHT22;2663;53.588;10.010;2023-05-16T03:05:05;11.40;99.90
5280;DHT22;2663;53.588;10.010;2023-05-16T03:07:32;11.40;99.90
5280;DHT22;2663;53.588;10.010;2023-05-16T03:09:58;11.40;99.90
5280;DHT22;2663;53.588;10.010;2023-05-16T03:12:25;11.40;99.90
5280;DHT22;2663;53.588;10.010;2023-05-16T03:14:52;11.40;99.90
5280;DHT22;2663;53.588;10.010;2023-05-16T03:17:19;11.40;99.90
5280;DHT22;2663;53.588;10.010;2023-05-16T03:19:46;11.30;99.90
5280;DHT22;2663;53.588;10.010;2023-05-16T03:22:12;11.30;99.90
5280;DHT22;2663;53.588;10.010;2023-05-16T03:24:39;11.30;99.90
5280;DHT22;2663;53.588;10.010;2023-05-16T03:27:06;11.30;99.90
5280;DHT22;2663;53.588;10.010;2023-05-16T03:29:33;11.40;99.90
5280;DHT22;2663;53.588;10.010;2023-05-16T03:32:00;11.30;99.90
5280;DHT22;2663;53.588;10.010;2023-05-16T03:34:27;11.20;99.90
5280;DHT22;2663;53.588;10.010;2023-05-16T03:36:54;11.20;99.90
5280;DHT22;2663;53.588;10.010;2023-05-16T03:39:20;11.10;99.90
5280;DHT22;2663;53.588;10.010;2023-05-16T03:41:47;11.10;99.90
5280;DHT22;2663;53.588;10.010;2023-05-16T03:44:14;11.10;99.90
5280;DHT22;2663;53.588;10.010;2023-05-16T03:46:40;11.10;99.90
5280;DHT22;2663;53.588;10.010;2023-05-16T03:49:07;11.10;99.90
5280;DHT22;2663;53.588;10.010;2023-05-16T03:51:34;11.10;99.90
5280;DHT22;2663;53.588;10.010;2023-05-16T03:54:00;11.10;99.90
5280;DHT22;2663;53.588;10.010;2023-05-16T03:56:27;11.10;99.90
5280;DHT22;2663;53.588;10.010;2023-05-16T03:58:54;11.20;99.90
5280;DHT22;2663;53.588;10.010;2023-05-16T04:01:20;11.20;99.90
5280;DHT22;2663;53.588;10.010;2023-05-16T04:03:48;11.20;99.90
5280;DHT22;2663;53.588;10.010;2023-05-16T04:06:16;11.30;99.90
5280;DHT22;2663;53.588;10.010;2023-05-16T04:08:43;11.20;99.90
5280;DHT22;2663;53.588;10.010;2023-05-16T04:11:10;10.50;99.90
5280;DHT22;2663;53.588;10.010;2023-05-16T04:13:37;11.40;99.90
5280;DHT22;2663;53.588;10.010;2023-05-16T04:16:04;11.30;99.90
5280;DHT22;2663;53.588;10.010;2023-05-16T04:18:31;11.30;99.90
5280;DHT22;2663;53.588;10.010;2023-05-16T04:20:58;11.20;99.90
5280;DHT22;2663;53.588;10.010;2023-05-16T04:23:24;11.20;99.90
5280;DHT22;2663;53.588;10.010;2023-05-16T04:25:51;11.20;99.90
5280;DHT22;2663;53.588;10.010;2023-05-16T04:28:18;11.20;99.90
5280;DHT22;2663;53.588;10.010;2023-05-16T04:30:45;11.20;99.90
5280;DHT22;2663;53.588;10.010;2023-05-16T04:33:12;11.20;99.90
5280;DHT22;2663;53.588;10.010;2023-05-16T04:35:39;11.10;99.90
5280;DHT22;2663;53.588;10.010;2023-05-16T04:38:06;11.20;99.90
5280;DHT22;2663;53.588;10.010;2023-05-16T04:40:33;11.20;99.90
5280;DHT22;2663;53.588;10.010;2023-05-16T04:43:00;11.10;99.90
5280;DHT22;2663;53.588;10.010;2023-05-16T04:45:27;11.00;99.90
5280;DHT22;2663;53.588;10.010;2023-05-16T04:47:54;11.00;99.90
5280;DHT22;2663;53.588;10.010;2023-05-16T04:50:21;11.00;99.90
5280;DHT22;2663;53.588;10.010;2023-05-16T04:52:47;11.10;99.90
5280;DHT22;2663;53.588;10.010;2023-05-16T04:55:14;11.10;99.90
5280;DHT22;2663;53.588;10.010;2023-05-16T04:57:41;11.10;99.90
5280;DHT22;2663;53.588;10.010;2023-05-16T05:00:08;11.10;99.90
5280;DHT22;2663;53.588;10.010;2023-05-16T05:02:37;11.00;99.90
5280;DHT22;2663;53.588;10.010;2023-05-16T05:05:05;11.00;99.90
5280;DHT22;2663;53.588;10.010;2023-05-16T05:07:32;10.90;99.90
5280;DHT22;2663;53.588;10.010;2023-05-16T05:09:59;10.80;99.90
5280;DHT22;2663;53.588;10.010;2023-05-16T05:12:25;10.70;99.90
5280;DHT22;2663;53.588;10.010;2023-05-16T05:14:53;10.80;99.90
5280;DHT22;2663;53.588;10.010;2023-05-16T05:17:22;10.80;99.90
5280;DHT22;2663;53.588;10.010;2023-05-16T05:19:49;10.90;99.90
5280;DHT22;2663;53.588;10.010;2023-05-16T05:22:15;10.80;99.90
5280;DHT22;2663;53.588;10.010;2023-05-16T05:24:42;10.90;99.90
5280;DHT22;2663;53.588;10.010;2023-05-16T05:27:09;10.90;99.90
5280;DHT22;2663;53.588;10.010;2023-05-16T05:29:36;11.00;99.90
5280;DHT22;2663;53.588;10.010;2023-05-16T05:32:02;11.10;99.90
5280;DHT22;2663;53.588;10.010;2023-05-16T05:34:29;11.10;99.90
5280;DHT22;2663;53.588;10.010;2023-05-16T05:36:56;11.20;99.90
5280;DHT22;2663;53.588;10.010;2023-05-16T05:39:23;11.20;99.90
5280;DHT22;2663;53.588;10.010;2023-05-16T05:41:51;11.10;99.90
5280;DHT22;2663;53.588;10.010;2023-05-16T05:44:17;11.10;99.90
5280;DHT22;2663;53.588;10.010;2023-05-16T05:46:44;11.20;99.90
5280;DHT22;2663;53.588;10.010;2023-05-16T05:49:11;11.20;99.90
5280;DHT22;2663;53.588;10.010;2023-05-16T05:51:38;11.10;99.90
5280;DHT22;2663;53.588;10.010;2023-05-16T05:54:05;11.10;99.90
5280;DHT22;2663;53.588;10.010;2023-05-16T05:56:31;11.20;99.90
5280;DHT22;2663;53.588;10.010;2023-05-16T05:58:58;11.20;99.90
5280;DHT22;2663;53.588;10.010;2023-05-16T06:01:25;11.20;99.90
5280;DHT22;2663;53.588;10.010;2023-05-16T06:03:52;11.30;99.90
5280;DHT22;2663;53.588;10.010;2023-05-16T06:06:19;11.30;99.90
5280;DHT22;2663;53.588;10.010;2023-05-16T06:08:46;11.40;99.90
5280;DHT22;2663;53.588;10.010;2023-05-16T06:11:12;11.40;99.90
5280;DHT22;2663;53.588;10.010;2023-05-16T06:13:39;11.30;99.90
5280;DHT22;2663;53.588;10.010;2023-05-16T06:16:06;11.30;99.90
5280;DHT22;2663;53.588;10.010;2023-05-16T06:18:35;11.40;99.90
5280;DHT22;2663;53.588;10.010;2023-05-16T06:21:02;11.40;99.90
5280;DHT22;2663;53.588;10.010;2023-05-16T06:23:28;11.50;99.90
5280;DHT22;2663;53.588;10.010;2023-05-16T06:25:55;11.50;99.90
5280;DHT22;2663;53.588;10.010;2023-05-16T06:28:22;11.60;99.90
5280;DHT22;2663;53.588;10.010;2023-05-16T06:30:49;11.60;99.90
5280;DHT22;2663;53.588;10.010;2023-05-16T06:33:17;11.80;99.90
5280;DHT22;2663;53.588;10.010;2023-05-16T06:35:44;11.90;99.90
5280;DHT22;2663;53.588;10.010;2023-05-16T06:38:11;11.80;99.90
5280;DHT22;2663;53.588;10.010;2023-05-16T06:40:38;11.60;99.90
5280;DHT22;2663;53.588;10.010;2023-05-16T06:43:05;11.50;99.90
5280;DHT22;2663;53.588;10.010;2023-05-16T06:45:31;11.40;99.90
5280;DHT22;2663;53.588;10.010;2023-05-16T06:47:58;11.60;99.90
5280;DHT22;2663;53.588;10.010;2023-05-16T06:50:25;11.60;99.90
5280;DHT22;2663;53.588;10.010;2023-05-16T06:52:52;12.40;99.90
5280;DHT22;2663;53.588;10.010;2023-05-16T06:55:19;11.60;99.90
5280;DHT22;2663;53.588;10.010;2023-05-16T06:57:46;12.90;99.90
5280;DHT22;2663;53.588;10.010;2023-05-16T07:00:13;11.70;99.90
5280;DHT22;2663;53.588;10.010;2023-05-16T07:02:40;11.80;99.90
5280;DHT22;2663;53.588;10.010;2023-05-16T07:05:07;11.70;99.90
5280;DHT22;2663;53.588;10.010;2023-05-16T07:07:34;11.60;99.90
5280;DHT22;2663;53.588;10.010;2023-05-16T07:10:02;11.70;99.90
5280;DHT22;2663;53.588;10.010;2023-05-16T07:12:29;11.60;99.90
5280;DHT22;2663;53.588;10.010;2023-05-16T07:14:55;11.60;99.90
5280;DHT22;2663;53.588;10.010;2023-05-16T07:17:22;11.80;99.90
5280;DHT22;2663;53.588;10.010;2023-05-16T07:19:49;11.90;99.90
5280;DHT22;2663;53.588;10.010;2023-05-16T07:22:16;11.80;99.90
5280;DHT22;2663;53.588;10.010;2023-05-16T07:24:43;11.80;99.90
5280;DHT22;2663;53.588;10.010;2023-05-16T07:27:09;11.90;99.90
5280;DHT22;2663;53.588;10.010;2023-05-16T07:29:37;11.90;99.90
5280;DHT22;2663;53.588;10.010;2023-05-16T07:32:04;12.20;99.90
5280;DHT22;2663;53.588;10.010;2023-05-16T07:34:31;12.20;99.60
5280;DHT22;2663;53.588;10.010;2023-05-16T07:36:58;12.40;99.00
5280;DHT22;2663;53.588;10.010;2023-05-16T07:39:24;12.40;98.70
5280;DHT22;2663;53.588;10.010;2023-05-16T07:41:52;12.60;98.50
5280;DHT22;2663;53.588;10.010;2023-05-16T07:44:18;12.50;98.40
5280;DHT22;2663;53.588;10.010;2023-05-16T07:46:45;12.50;98.50
5280;DHT22;2663;53.588;10.010;2023-05-16T07:49:12;12.40;98.30
5280;DHT22;2663;53.588;10.010;2023-05-16T07:51:38;12.20;98.00
5280;DHT22;2663;53.588;10.010;2023-05-16T07:54:05;12.10;98.30
5280;DHT22;2663;53.588;10.010;2023-05-16T07:56:32;11.90;97.60
5280;DHT22;2663;53.588;10.010;2023-05-16T07:58:59;12.00;97.30
5280;DHT22;2663;53.588;10.010;2023-05-16T08:01:26;12.30;96.80
5280;DHT22;2663;53.588;10.010;2023-05-16T08:03:53;14.40;97.20
5280;DHT22;2663;53.588;10.010;2023-05-16T08:06:19;12.50;96.50
5280;DHT22;2663;53.588;10.010;2023-05-16T08:08:46;12.50;96.60
5280;DHT22;2663;53.588;10.010;2023-05-16T08:11:14;12.30;96.50
5280;DHT22;2663;53.588;10.010;2023-05-16T08:13:41;12.30;96.20
5280;DHT22;2663;53.588;10.010;2023-05-16T08:16:07;12.50;95.90
5280;DHT22;2663;53.588;10.010;2023-05-16T08:18:34;12.60;95.70
5280;DHT22;2663;53.588;10.010;2023-05-16T08:21:01;12.90;95.80
5280;DHT22;2663;53.588;10.010;2023-05-16T08:23:28;13.50;95.60
5280;DHT22;2663;53.588;10.010;2023-05-16T08:25:55;13.50;95.70
5280;DHT22;2663;53.588;10.010;2023-05-16T08:28:22;13.70;96.10
5280;DHT22;2663;53.588;10.010;2023-05-16T08:30:48;13.40;96.40
5280;DHT22;2663;53.588;10.010;2023-05-16T08:33:15;12.60;97.50
5280;DHT22;2663;53.588;10.010;2023-05-16T08:35:42;12.20;97.80
5280;DHT22;2663;53.588;10.010;2023-05-16T08:38:09;12.10;98.10
5280;DHT22;2663;53.588;10.010;2023-05-16T08:40:36;12.30;98.00
5280;DHT22;2663;53.588;10.010;2023-05-16T08:43:03;12.50;97.80
5280;DHT22;2663;53.588;10.010;2023-05-16T08:45:30;12.90;97.90
5280;DHT22;2663;53.588;10.010;2023-05-16T08:48:00;13.00;97.90
5280;DHT22;2663;53.588;10.010;2023-05-16T08:50:31;13.10;97.00
5280;DHT22;2663;53.588;10.010;2023-05-16T08:53:03;13.00;93.50
5280;DHT22;2663;53.588;10.010;2023-05-16T08:55:32;12.90;94.20
5280;DHT22;2663;53.588;10.010;2023-05-16T08:58:00;13.20;93.40
5280;DHT22;2663;53.588;10.010;2023-05-16T09:00:27;13.20;93.30
5280;DHT22;2663;53.588;10.010;2023-05-16T09:02:54;13.40;93.00
5280;DHT22;2663;53.588;10.010;2023-05-16T09:05:21;13.50;93.00
5280;DHT22;2663;53.588;10.010;2023-05-16T09:07:49;13.60;93.10
5280;DHT22;2663;53.588;10.010;2023-05-16T09:10:16;13.60;93.10
5280;DHT22;2663;53.588;10.010;2023-05-16T09:12:43;13.80;93.00
5280;DHT22;2663;53.588;10.010;2023-05-16T09:15:10;14.00;93.90
5280;DHT22;2663;53.588;10.010;2023-05-16T09:17:46;14.00;93.40
5280;DHT22;2663;53.588;10.010;2023-05-16T09:20:16;14.00;94.10
5280;DHT22;2663;53.588;10.010;2023-05-16T09:22:54;13.70;94.60
5280;DHT22;2663;53.588;10.010;2023-05-16T09:25:23;13.50;95.10
5280;DHT22;2663;53.588;10.010;2023-05-16T09:27:53;13.40;95.40
5280;DHT22;2663;53.588;10.010;2023-05-16T09:30:22;13.40;95.40
5280;DHT22;2663;53.588;10.010;2023-05-16T09:32:52;13.30;95.90
5280;DHT22;2663;53.588;10.010;2023-05-16T09:35:20;13.20;96.40
5280;DHT22;2663;53.588;10.010;2023-05-16T09:38:13;12.80;96.10
5280;DHT22;2663;53.588;10.010;2023-05-16T09:40:40;12.60;95.80
5280;DHT22;2663;53.588;10.010;2023-05-16T09:43:08;12.80;96.20
5280;DHT22;2663;53.588;10.010;2023-05-16T09:45:35;13.00;96.40
5280;DHT22;2663;53.588;10.010;2023-05-16T09:48:11;13.10;95.30
5280;DHT22;2663;53.588;10.010;2023-05-16T09:50:38;13.40;95.00
5280;DHT22;2663;53.588;10.010;2023-05-16T09:53:06;13.50;94.20
5280;DHT22;2663;53.588;10.010;2023-05-16T09:55:33;13.70;93.70
5280;DHT22;2663;53.588;10.010;2023-05-16T09:58:00;13.40;91.40
5280;DHT22;2663;53.588;10.010;2023-05-16T10:00:31;13.20;91.70
5280;DHT22;2663;53.588;10.010;2023-05-16T10:03:01;13.00;92.70
5280;DHT22;2663;53.588;10.010;2023-05-16T10:05:32;13.00;92.70
5280;DHT22;2663;53.588;10.010;2023-05-16T10:08:02;13.10;92.30
5280;DHT22;2663;53.588;10.010;2023-05-16T10:10:29;12.90;94.70
5280;DHT22;2663;53.588;10.010;2023-05-16T10:12:58;12.80;95.40
5280;DHT22;2663;53.588;10.010;2023-05-16T10:15:27;12.60;94.80
5280;DHT22;2663;53.588;10.010;2023-05-16T10:17:55;12.90;95.50
5280;DHT22;2663;53.588;10.010;2023-05-16T10:20:25;13.10;95.60
5280;DHT22;2663;53.588;10.010;2023-05-16T10:22:54;13.30;95.70
5280;DHT22;2663;53.588;10.010;2023-05-16T10:25:39;13.20;95.90
5280;DHT22;2663;53.588;10.010;2023-05-16T10:28:07;13.10;96.60
5280;DHT22;2663;53.588;10.010;2023-05-16T10:30:35;13.20;96.80
5280;DHT22;2663;53.588;10.010;2023-05-16T10:33:03;13.30;96.50
5280;DHT22;2663;53.588;10.010;2023-05-16T10:35:30;13.30;96.60
5280;DHT22;2663;53.588;10.010;2023-05-16T10:37:59;13.50;95.80
5280;DHT22;2663;53.588;10.010;2023-05-16T10:40:27;13.40;95.90
5280;DHT22;2663;53.588;10.010;2023-05-16T10:42:56;13.30;96.00
5280;DHT22;2663;53.588;10.010;2023-05-16T10:45:23;13.20;95.50
5280;DHT22;2663;53.588;10.010;2023-05-16T10:48:01;13.10;93.30
5280;DHT22;2663;53.588;10.010;2023-05-16T10:58:41;13.20;93.60
5280;DHT22;2663;53.588;10.010;2023-05-16T11:11:59;12.60;95.80
5280;DHT22;2663;53.588;10.010;2023-05-16T11:14:41;12.40;94.30
5280;DHT22;2663;53.588;10.010;2023-05-16T11:17:20;12.30;94.10
5280;DHT22;2663;53.588;10.010;2023-05-16T11:19:55;12.50;94.10
5280;DHT22;2663;53.588;10.010;2023-05-16T11:22:33;12.60;93.70
5280;DHT22;2663;53.588;10.010;2023-05-16T11:25:05;12.70;93.30
5280;DHT22;2663;53.588;10.010;2023-05-16T11:27:41;12.70;93.30
5280;DHT22;2663;53.588;10.010;2023-05-16T11:32:37;12.80;92.20
5280;DHT22;2663;53.588;10.010;2023-05-16T11:35:06;12.70;92.80
5280;DHT22;2663;53.588;10.010;2023-05-16T11:37:34;12.90;93.30
5280;DHT22;2663;53.588;10.010;2023-05-16T11:40:03;12.90;92.40
5280;DHT22;2663;53.588;10.010;2023-05-16T11:42:32;13.00;92.20
5280;DHT22;2663;53.588;10.010;2023-05-16T11:45:26;13.20;92.40
5280;DHT22;2663;53.588;10.010;2023-05-16T11:47:53;13.40;92.40
5280;DHT22;2663;53.588;10.010;2023-05-16T11:50:22;13.30;92.40
5280;DHT22;2663;53.588;10.010;2023-05-16T11:52:52;13.30;93.10
5280;DHT22;2663;53.588;10.010;2023-05-16T11:55:22;13.30;94.20
5280;DHT22;2663;53.588;10.010;2023-05-16T11:58:06;13.00;93.80
5280;DHT22;2663;53.588;10.010;2023-05-16T12:00:33;12.90;94.00
5280;DHT22;2663;53.588;10.010;2023-05-16T12:03:02;12.80;93.40
5280;DHT22;2663;53.588;10.010;2023-05-16T12:05:31;12.80;93.80
5280;DHT22;2663;53.588;10.010;2023-05-16T12:08:00;12.80;93.90
5280;DHT22;2663;53.588;10.010;2023-05-16T12:10:30;12.80;93.90
5280;DHT22;2663;53.588;10.010;2023-05-16T12:13:00;12.80;94.80
5280;DHT22;2663;53.588;10.010;2023-05-16T12:15:27;12.70;94.60
5280;DHT22;2663;53.588;10.010;2023-05-16T12:17:54;12.60;95.70
5280;DHT22;2663;53.588;10.010;2023-05-16T12:20:22;12.60;94.80
5280;DHT22;2663;53.588;10.010;2023-05-16T12:22:51;12.60;94.90
5280;DHT22;2663;53.588;10.010;2023-05-16T12:27:48;12.40;94.50
5280;DHT22;2663;53.588;10.010;2023-05-16T12:30:18;12.70;94.60
5280;DHT22;2663;53.588;10.010;2023-05-16T12:32:55;12.70;94.10
5280;DHT22;2663;53.588;10.010;2023-05-16T12:35:24;12.50;94.80
5280;DHT22;2663;53.588;10.010;2023-05-16T12:37:51;12.70;94.60
5280;DHT22;2663;53.588;10.010;2023-05-16T12:40:18;12.70;95.10
5280;DHT22;2663;53.588;10.010;2023-05-16T12:42:49;12.80;94.90
5280;DHT22;2663;53.588;10.010;2023-05-16T12:45:21;12.90;95.50
5280;DHT22;2663;53.588;10.010;2023-05-16T12:47:48;12.90;95.00
5280;DHT22;2663;53.588;10.010;2023-05-16T12:50:16;13.00;95.60
5280;DHT22;2663;53.588;10.010;2023-05-16T12:52:50;13.00;96.30
5280;DHT22;2663;53.588;10.010;2023-05-16T12:55:17;12.60;97.20
5280;DHT22;2663;53.588;10.010;2023-05-16T12:57:45;12.60;97.70
5280;DHT22;2663;53.588;10.010;2023-05-16T13:00:17;12.80;98.00
5280;DHT22;2663;53.588;10.010;2023-05-16T13:02:45;12.60;98.10
5280;DHT22;2663;53.588;10.010;2023-05-16T13:05:12;12.60;98.50
5280;DHT22;2663;53.588;10.010;2023-05-16T13:07:39;12.70;98.50
5280;DHT22;2663;53.588;10.010;2023-05-16T13:10:10;12.50;98.80
5280;DHT22;2663;53.588;10.010;2023-05-16T13:12:38;12.50;99.90
5280;DHT22;2663;53.588;10.010;2023-05-16T13:15:09;12.10;99.90
5280;DHT22;2663;53.588;10.010;2023-05-16T13:17:38;12.00;99.90
5280;DHT22;2663;53.588;10.010;2023-05-16T13:20:05;12.00;99.90
5280;DHT22;2663;53.588;10.010;2023-05-16T13:22:36;12.10;99.90
5280;DHT22;2663;53.588;10.010;2023-05-16T13:25:03;12.40;99.90
5280;DHT22;2663;53.588;10.010;2023-05-16T13:27:31;12.70;99.90
5280;DHT22;2663;53.588;10.010;2023-05-16T13:29:58;12.90;99.40
5280;DHT22;2663;53.588;10.010;2023-05-16T13:32:25;12.60;99.10
5280;DHT22;2663;53.588;10.010;2023-05-16T13:34:52;12.50;99.30
5280;DHT22;2663;53.588;10.010;2023-05-16T13:37:19;12.50;99.20
5280;DHT22;2663;53.588;10.010;2023-05-16T13:39:45;12.50;99.30
5280;DHT22;2663;53.588;10.010;2023-05-16T13:42:12;12.80;98.90
5280;DHT22;2663;53.588;10.010;2023-05-16T13:44:39;12.80;97.70
5280;DHT22;2663;53.588;10.010;2023-05-16T13:47:05;12.80;97.80
5280;DHT22;2663;53.588;10.010;2023-05-16T13:49:32;12.80;97.20
5280;DHT22;2663;53.588;10.010;2023-05-16T13:51:59;12.70;96.10
5280;DHT22;2663;53.588;10.010;2023-05-16T13:54:27;12.80;95.80
5280;DHT22;2663;53.588;10.010;2023-05-16T13:56:53;12.80;95.80
5280;DHT22;2663;53.588;10.010;2023-05-16T13:59:20;12.80;95.30
5280;DHT22;2663;53.588;10.010;2023-05-16T14:02:03;12.80;95.30
5280;DHT22;2663;53.588;10.010;2023-05-16T14:04:30;12.50;96.10
5280;DHT22;2663;53.588;10.010;2023-05-16T14:06:57;12.40;95.60
5280;DHT22;2663;53.588;10.010;2023-05-16T14:09:24;12.30;96.20
5280;DHT22;2663;53.588;10.010;2023-05-16T14:11:50;12.60;96.60
5280;DHT22;2663;53.588;10.010;2023-05-16T14:14:17;12.70;96.60
5280;DHT22;2663;53.588;10.010;2023-05-16T14:16:44;13.00;97.90
5280;DHT22;2663;53.588;10.010;2023-05-16T14:19:12;13.20;95.70
5280;DHT22;2663;53.588;10.010;2023-05-16T14:21:42;13.40;95.70
5280;DHT22;2663;53.588;10.010;2023-05-16T14:24:08;13.70;95.70
5280;DHT22;2663;53.588;10.010;2023-05-16T14:26:35;13.90;94.50
5280;DHT22;2663;53.588;10.010;2023-05-16T14:29:02;13.80;95.30
5280;DHT22;2663;53.588;10.010;2023-05-16T14:31:29;13.80;95.30
5280;DHT22;2663;53.588;10.010;2023-05-16T14:33:56;14.30;95.90
5280;DHT22;2663;53.588;10.010;2023-05-16T14:36:23;14.30;95.80
5280;DHT22;2663;53.588;10.010;2023-05-16T14:38:49;14.40;95.40
5280;DHT22;2663;53.588;10.010;2023-05-16T14:41:17;14.60;94.80
5280;DHT22;2663;53.588;10.010;2023-05-16T14:43:44;13.90;95.10
5280;DHT22;2663;53.588;10.010;2023-05-16T14:46:10;13.70;94.90
5280;DHT22;2663;53.588;10.010;2023-05-16T14:48:37;13.60;93.90
5280;DHT22;2663;53.588;10.010;2023-05-16T14:51:05;13.20;94.10
5280;DHT22;2663;53.588;10.010;2023-05-16T14:53:32;13.00;94.70
5280;DHT22;2663;53.588;10.010;2023-05-16T14:55:59;12.90;93.50
5280;DHT22;2663;53.588;10.010;2023-05-16T14:58:28;13.00;93.50
5280;DHT22;2663;53.588;10.010;2023-05-16T15:00:56;13.50;93.40
5280;DHT22;2663;53.588;10.010;2023-05-16T15:03:22;13.00;92.80
5280;DHT22;2663;53.588;10.010;2023-05-16T15:05:49;12.80;93.60
5280;DHT22;2663;53.588;10.010;2023-05-16T15:08:16;12.50;95.30
5280;DHT22;2663;53.588;10.010;2023-05-16T15:10:43;12.40;95.60
5280;DHT22;2663;53.588;10.010;2023-05-16T15:13:09;12.40;95.80
5280;DHT22;2663;53.588;10.010;2023-05-16T15:15:36;12.20;95.30
5280;DHT22;2663;53.588;10.010;2023-05-16T15:18:04;12.40;94.90
5280;DHT22;2663;53.588;10.010;2023-05-16T15:20:31;12.40;95.90
5280;DHT22;2663;53.588;10.010;2023-05-16T15:22:58;12.70;96.60
5280;DHT22;2663;53.588;10.010;2023-05-16T15:25:26;12.90;97.20
5280;DHT22;2663;53.588;10.010;2023-05-16T15:27:54;13.40;97.30
5280;DHT22;2663;53.588;10.010;2023-05-16T15:30:21;13.30;96.80
5280;DHT22;2663;53.588;10.010;2023-05-16T15:32:48;13.10;97.20
5280;DHT22;2663;53.588;10.010;2023-05-16T15:35:14;13.00;97.60
5280;DHT22;2663;53.588;10.010;2023-05-16T15:37:41;13.00;97.80
5280;DHT22;2663;53.588;10.010;2023-05-16T15:40:09;13.00;98.00
5280;DHT22;2663;53.588;10.010;2023-05-16T15:42:36;12.80;97.80
5280;DHT22;2663;53.588;10.010;2023-05-16T15:45:04;12.70;98.50
5280;DHT22;2663;53.588;10.010;2023-05-16T15:47:31;12.60;99.30
5280;DHT22;2663;53.588;10.010;2023-05-16T15:49:58;12.40;99.70
5280;DHT22;2663;53.588;10.010;2023-05-16T15:52:25;12.40;99.90
5280;DHT22;2663;53.588;10.010;2023-05-16T15:54:51;12.50;99.90
5280;DHT22;2663;53.588;10.010;2023-05-16T15:57:18;12.50;99.90
5280;DHT22;2663;53.588;10.010;2023-05-16T15:59:45;12.30;99.90
5280;DHT22;2663;53.588;10.010;2023-05-16T16:02:11;12.30;99.90
5280;DHT22;2663;53.588;10.010;2023-05-16T16:04:38;12.40;99.90
5280;DHT22;2663;53.588;10.010;2023-05-16T16:07:05;12.50;99.90
5280;DHT22;2663;53.588;10.010;2023-05-16T16:09:32;12.60;99.90
5280;DHT22;2663;53.588;10.010;2023-05-16T16:11:59;12.60;99.80
5280;DHT22;2663;53.588;10.010;2023-05-16T16:14:25;12.50;99.90
5280;DHT22;2663;53.588;10.010;2023-05-16T16:16:52;12.40;99.90
5280;DHT22;2663;53.588;10.010;2023-05-16T16:19:19;12.20;99.90
5280;DHT22;2663;53.588;10.010;2023-05-16T16:21:46;12.50;99.90
5280;DHT22;2663;53.588;10.010;2023-05-16T16:24:12;13.80;97.90
5280;DHT22;2663;53.588;10.010;2023-05-16T16:26:41;13.40;98.30
5280;DHT22;2663;53.588;10.010;2023-05-16T16:29:08;14.10;96.80